createdAt,value
2019-01-25T00:03:23.386Z,27.97
2019-01-25T00:07:31.330Z,26.33
2019-01-25T00:11:38.192Z,26.60
2019-01-25T00:15:45.099Z,27.03
2019-01-25T00:19:51.984Z,26.70
2019-01-25T00:23:58.873Z,28.10
2019-01-25T00:28:05.782Z,27.73
2019-01-25T00:32:13.233Z,28.43
2019-01-25T00:36:20.155Z,26.60
2019-01-25T00:40:27.586Z,27.83
2019-01-25T00:44:34.439Z,27.70
2019-01-25T00:48:41.249Z,29.83
2019-01-25T00:52:48.774Z,28.13
2019-01-25T00:56:55.637Z,28.03
2019-01-25T01:01:02.450Z,30.13
2019-01-25T01:05:09.721Z,29.33
2019-01-25T01:09:16.595Z,30.10
2019-01-25T01:13:23.531Z,26.90
2019-01-25T01:17:30.560Z,29.87
2019-01-25T01:21:37.477Z,31.17
2019-01-25T01:25:44.399Z,30.27
2019-01-25T01:29:51.197Z,31.83
2019-01-25T01:33:58.041Z,29.77
2019-01-25T01:38:05.746Z,30.23
2019-01-25T01:42:12.590Z,29.23
2019-01-25T01:46:19.614Z,27.70
2019-01-25T01:50:26.554Z,30.03
2019-01-25T01:54:33.501Z,30.47
2019-01-25T01:58:40.360Z,29.77
2019-01-25T02:02:47.333Z,30.00
2019-01-25T02:06:54.361Z,30.20
2019-01-25T02:11:01.305Z,28.70
2019-01-25T02:15:10.693Z,28.20
2019-01-25T02:19:18.536Z,26.80
2019-01-25T02:23:25.431Z,28.07
2019-01-25T02:27:32.301Z,28.83
2019-01-25T02:31:39.165Z,29.47
2019-01-25T02:35:46.079Z,30.03
2019-01-25T02:39:52.968Z,25.37
2019-01-25T02:43:59.892Z,24.57
2019-01-25T02:48:07.100Z,27.07
2019-01-25T02:52:13.937Z,26.90
2019-01-25T02:56:22.081Z,27.00
2019-01-25T03:00:28.932Z,28.07
2019-01-25T03:04:35.808Z,28.00
2019-01-25T03:08:42.695Z,28.97
2019-01-25T03:12:49.873Z,26.73
2019-01-25T03:16:56.761Z,27.00
2019-01-25T03:21:04.997Z,28.13
2019-01-25T03:25:16.004Z,29.10
2019-01-25T03:29:22.833Z,28.77
2019-01-25T03:33:29.742Z,30.67
2019-01-25T03:37:36.653Z,29.27
2019-01-25T03:41:43.480Z,29.90
2019-01-25T03:45:50.366Z,29.20
2019-01-25T03:49:57.240Z,29.97
2019-01-25T03:54:04.192Z,32.23
2019-01-25T03:58:11.250Z,31.83
2019-01-25T04:02:18.163Z,33.87
2019-01-25T04:06:25.053Z,28.93
2019-01-25T04:10:32.053Z,33.13
2019-01-25T04:14:38.897Z,31.30
2019-01-25T04:18:48.120Z,31.87
2019-01-25T04:22:55.114Z,29.43
2019-01-25T04:27:01.972Z,30.23
2019-01-25T04:31:08.791Z,31.70
2019-01-25T04:35:15.745Z,31.13
2019-01-25T04:39:23.531Z,31.03
2019-01-25T04:43:30.408Z,32.30
2019-01-25T04:47:37.380Z,31.87
2019-01-25T04:51:44.318Z,31.43
2019-01-25T04:55:51.189Z,30.07
2019-01-25T04:59:58.027Z,32.43
2019-01-25T05:04:05.484Z,30.60
2019-01-25T05:08:22.693Z,30.90
2019-01-25T05:12:29.531Z,32.60
2019-01-25T05:16:39.715Z,33.70
2019-01-25T05:20:46.545Z,29.17
2019-01-25T05:24:53.419Z,30.63
2019-01-25T05:29:00.345Z,30.10
2019-01-25T05:33:07.314Z,31.10
2019-01-25T05:37:15.430Z,31.30
2019-01-25T05:41:28.255Z,32.37
2019-01-25T05:45:31.045Z,30.97
2019-01-25T05:49:38.083Z,31.03
2019-01-25T05:53:52.885Z,32.37
2019-01-25T05:58:03.635Z,32.73
2019-01-25T06:02:10.521Z,35.27
2019-01-25T06:06:17.429Z,31.87
2019-01-25T06:10:26.062Z,32.57
2019-01-25T06:14:33.126Z,32.00
2019-01-25T06:18:40.041Z,33.70
2019-01-25T06:22:46.976Z,34.40
2019-01-25T06:26:53.838Z,34.63
2019-01-25T06:31:00.641Z,32.77
2019-01-25T06:35:08.043Z,34.87
2019-01-25T06:39:14.329Z,32.37
2019-01-25T06:43:21.260Z,33.83
2019-01-25T06:47:28.182Z,34.50
2019-01-25T06:51:35.207Z,31.67
2019-01-25T06:55:42.063Z,35.43
2019-01-25T06:59:49.191Z,33.70
2019-01-25T07:03:56.153Z,35.10
2019-01-25T07:08:03.032Z,35.00
2019-01-25T07:12:10.040Z,32.97
2019-01-25T07:16:16.996Z,34.23
2019-01-25T07:20:23.949Z,36.37
2019-01-25T07:24:31.088Z,33.47
2019-01-25T07:28:38.078Z,34.77
2019-01-25T07:32:45.412Z,35.30
2019-01-25T07:36:52.385Z,34.10
2019-01-25T07:40:59.338Z,34.83
2019-01-25T07:45:07.431Z,36.63
2019-01-25T07:49:14.315Z,35.00
2019-01-25T07:53:22.337Z,36.10
2019-01-25T07:57:29.462Z,37.47
2019-01-25T08:01:36.465Z,36.17
2019-01-25T08:05:43.493Z,36.07
2019-01-25T08:09:50.601Z,35.67
2019-01-25T08:13:57.477Z,34.90
2019-01-25T08:18:04.460Z,34.73
2019-01-25T08:22:11.582Z,36.87
2019-01-25T08:26:18.665Z,37.43
2019-01-25T08:30:25.714Z,38.00
2019-01-25T08:34:34.069Z,36.37
2019-01-25T08:38:41.217Z,37.97
2019-01-25T08:42:48.323Z,35.87
2019-01-25T08:46:55.282Z,38.13
2019-01-25T08:51:04.470Z,39.03
2019-01-25T08:55:11.561Z,38.87
2019-01-25T08:59:18.551Z,38.73
2019-01-25T09:03:25.379Z,36.77
2019-01-25T09:07:32.271Z,37.50
2019-01-25T09:11:39.269Z,39.03
2019-01-25T09:15:47.777Z,39.07
2019-01-25T09:19:54.686Z,37.57
2019-01-25T09:24:02.090Z,40.70
2019-01-25T09:28:11.668Z,38.93
2019-01-25T09:32:18.603Z,38.57
2019-01-25T09:36:25.624Z,41.43
2019-01-25T09:40:32.908Z,38.90
2019-01-25T09:44:40.108Z,38.93
2019-01-25T09:48:47.005Z,42.33
2019-01-25T09:52:53.972Z,40.73
2019-01-25T09:57:00.812Z,40.03
2019-01-25T10:01:10.650Z,41.13
2019-01-25T10:05:17.525Z,40.40
2019-01-25T10:09:24.505Z,42.70
2019-01-25T10:13:31.319Z,43.37
2019-01-25T10:17:38.109Z,41.43
2019-01-25T10:21:44.972Z,43.53
2019-01-25T10:25:51.898Z,44.87
2019-01-25T10:29:58.705Z,43.50
2019-01-25T10:34:05.842Z,44.10
2019-01-25T10:38:12.728Z,42.53
2019-01-25T10:42:19.546Z,44.80
2019-01-25T10:46:26.520Z,42.83
2019-01-25T10:50:33.585Z,43.70
2019-01-25T10:54:41.805Z,45.50
2019-01-25T10:58:48.621Z,43.50
2019-01-25T11:02:58.397Z,47.40
2019-01-25T11:07:04.050Z,47.67
2019-01-25T11:11:10.923Z,43.47
2019-01-25T11:15:21.171Z,43.37
2019-01-25T11:19:28.023Z,44.70
2019-01-25T11:23:34.872Z,44.70
2019-01-25T11:27:43.633Z,44.13
2019-01-25T11:31:51.056Z,45.80
2019-01-25T11:35:57.860Z,43.43
2019-01-25T11:40:07.110Z,46.37
2019-01-25T11:44:14.116Z,45.67
2019-01-25T11:48:21.316Z,43.27
2019-01-25T11:52:28.668Z,43.93
2019-01-25T11:56:35.593Z,44.53
2019-01-25T12:00:46.082Z,44.10
2019-01-25T12:04:53.025Z,45.83
2019-01-25T12:09:00.093Z,46.87
2019-01-25T12:13:06.890Z,46.47
2019-01-25T12:17:13.761Z,44.60
2019-01-25T12:21:20.879Z,47.27
2019-01-25T12:25:27.805Z,45.03
2019-01-25T12:29:34.644Z,43.70
2019-01-25T12:33:41.563Z,46.70
2019-01-25T12:37:48.488Z,45.13
2019-01-25T12:41:55.364Z,44.33
2019-01-25T12:46:02.200Z,45.30
2019-01-25T12:50:23.578Z,44.87
2019-01-25T12:54:30.673Z,46.50
2019-01-25T12:58:37.736Z,45.43
2019-01-25T13:02:45.770Z,45.43
2019-01-25T13:06:52.680Z,42.90
2019-01-25T13:10:59.630Z,43.83
2019-01-25T13:15:08.061Z,45.23
2019-01-25T13:19:15.177Z,43.50
2019-01-25T13:23:22.107Z,44.10
2019-01-25T13:27:31.937Z,44.93
2019-01-25T13:31:38.787Z,46.83
2019-01-25T13:35:45.687Z,45.93
2019-01-25T13:44:12.972Z,45.53
2019-01-25T13:48:19.968Z,45.77
2019-01-25T13:52:26.962Z,44.90
2019-01-25T13:56:33.938Z,45.33
2019-01-25T14:00:40.838Z,44.80
2019-01-25T14:04:47.943Z,45.87
2019-01-25T14:08:55.034Z,44.27
2019-01-25T14:13:02.273Z,43.63
2019-01-25T14:17:09.389Z,44.00
2019-01-25T14:21:16.460Z,43.30
2019-01-25T14:25:23.505Z,43.13
2019-01-25T14:29:32.472Z,44.17
2019-01-25T14:33:39.024Z,42.53
2019-01-25T14:37:46.328Z,42.27
2019-01-25T14:41:53.251Z,43.40
2019-01-25T14:46:00.114Z,43.07
2019-01-25T14:50:13.797Z,43.23
2019-01-25T14:54:20.799Z,42.90
2019-01-25T14:58:27.653Z,43.17
2019-01-25T15:02:34.602Z,41.27
2019-01-25T15:06:41.696Z,41.10
2019-01-25T15:10:49.056Z,41.93
2019-01-25T15:14:56.144Z,42.43
2019-01-25T15:19:03.414Z,42.77
2019-01-25T15:23:12.000Z,43.47
2019-01-25T15:27:18.993Z,40.67
2019-01-25T15:31:25.818Z,39.33
2019-01-25T15:35:33.623Z,41.43
2019-01-25T15:39:40.548Z,41.27
2019-01-25T15:43:49.390Z,38.37
2019-01-25T15:47:56.352Z,38.57
2019-01-25T15:52:03.142Z,40.93
2019-01-25T15:56:10.054Z,38.47
2019-01-25T16:00:19.906Z,34.73
2019-01-25T16:04:34.582Z,30.57
2019-01-25T16:08:36.269Z,28.60
2019-01-25T16:12:43.253Z,29.30
2019-01-25T16:16:50.207Z,26.57
2019-01-25T16:20:57.128Z,27.80
2019-01-25T16:25:04.597Z,29.40
2019-01-25T16:29:11.551Z,30.50
2019-01-25T16:33:18.425Z,27.50
2019-01-25T16:37:25.275Z,27.27
2019-01-25T16:41:32.999Z,29.67
2019-01-25T16:45:43.012Z,27.07
2019-01-25T16:49:50.052Z,26.63
2019-01-25T16:53:56.892Z,24.87
2019-01-25T16:58:03.846Z,23.03
2019-01-25T17:02:10.721Z,20.73
2019-01-25T17:06:17.855Z,18.30
2019-01-25T17:10:24.924Z,17.93
2019-01-25T17:14:33.525Z,16.07
2019-01-25T17:18:40.578Z,14.97
2019-01-25T17:22:47.606Z,17.40
2019-01-25T17:26:56.240Z,17.83
2019-01-25T17:31:03.217Z,20.87
2019-01-25T17:35:10.401Z,20.90
2019-01-25T17:39:19.036Z,21.97
2019-01-25T17:43:25.953Z,22.33
2019-01-25T17:47:37.542Z,23.20
2019-01-25T17:51:44.748Z,24.00
2019-01-25T17:55:51.645Z,25.07
2019-01-25T17:59:58.781Z,23.83
2019-01-25T18:04:10.396Z,24.43
2019-01-25T18:08:17.464Z,25.50
2019-01-25T18:12:24.334Z,24.40
2019-01-25T18:16:32.349Z,22.50
2019-01-25T18:20:39.366Z,24.03
2019-01-25T18:24:46.878Z,23.67
2019-01-25T18:29:11.144Z,22.97
2019-01-25T18:33:18.124Z,23.77
2019-01-25T18:37:25.195Z,22.43
2019-01-25T18:41:32.056Z,23.63
2019-01-25T18:45:39.102Z,23.93
2019-01-25T18:49:46.215Z,24.47
2019-01-25T18:53:53.178Z,25.57
2019-01-25T18:58:00.372Z,25.17
2019-01-25T19:02:09.961Z,26.97
2019-01-25T19:06:17.141Z,25.27
2019-01-25T19:10:26.430Z,26.67
2019-01-25T19:14:34.046Z,25.37
2019-01-25T19:18:41.183Z,26.30
2019-01-25T19:22:48.487Z,28.60
2019-01-25T19:26:55.981Z,26.87
2019-01-25T19:31:03.367Z,26.73
2019-01-25T19:35:14.159Z,29.03
2019-01-25T19:39:22.591Z,27.00
2019-01-25T19:43:29.958Z,29.80
2019-01-25T19:47:37.088Z,29.80
2019-01-25T19:51:46.581Z,28.00
2019-01-25T19:55:57.166Z,30.27
2019-01-25T20:00:08.903Z,28.20
2019-01-25T20:04:17.745Z,29.70
2019-01-25T20:08:28.065Z,30.30
2019-01-25T20:12:35.542Z,29.90
2019-01-25T20:16:43.113Z,29.23
2019-01-25T20:21:00.009Z,31.17
2019-01-25T20:25:08.187Z,32.63
2019-01-25T20:29:15.353Z,32.47
2019-01-25T20:33:24.452Z,35.60
2019-01-25T20:37:31.873Z,35.77
2019-01-25T20:41:39.186Z,35.13
2019-01-25T20:45:46.606Z,32.80
2019-01-25T20:49:54.007Z,33.43
2019-01-25T20:54:01.230Z,36.07
2019-01-25T20:58:09.920Z,39.17
2019-01-25T21:02:17.114Z,35.87
2019-01-25T21:06:24.095Z,35.80
2019-01-25T21:10:31.110Z,34.33
2019-01-25T21:14:38.607Z,35.23
2019-01-25T21:18:45.834Z,38.97
2019-01-25T21:22:52.995Z,36.20
2019-01-25T21:27:01.274Z,35.10
2019-01-25T21:31:08.520Z,34.93
2019-01-25T21:35:15.949Z,35.67
2019-01-25T21:39:25.724Z,35.03
2019-01-25T21:43:33.219Z,37.53
2019-01-25T21:47:40.847Z,36.80
2019-01-25T21:51:48.108Z,34.50
2019-01-25T21:55:55.111Z,34.37
2019-01-25T22:00:02.184Z,33.63
2019-01-25T22:04:10.675Z,35.37
2019-01-25T22:08:17.915Z,34.10
2019-01-25T22:12:24.879Z,34.67
2019-01-25T22:16:32.643Z,34.97
2019-01-25T22:20:43.046Z,37.37
2019-01-25T22:24:56.660Z,35.33
2019-01-25T22:29:03.735Z,31.10
2019-01-25T22:33:10.699Z,36.03
2019-01-25T22:37:17.898Z,35.57
2019-01-25T22:41:25.488Z,33.03
2019-01-25T22:45:33.928Z,34.43
2019-01-25T22:49:40.974Z,33.00
2019-01-25T22:53:48.734Z,32.50
2019-01-25T22:57:55.932Z,31.93
2019-01-25T23:02:02.888Z,32.63
2019-01-25T23:06:43.611Z,31.73
2019-01-25T23:10:50.526Z,31.90
2019-01-25T23:14:57.707Z,32.53
2019-01-25T23:19:04.864Z,30.37
2019-01-25T23:23:12.451Z,31.03
2019-01-25T23:27:19.295Z,29.57
2019-01-25T23:31:26.685Z,30.93
2019-01-25T23:35:36.665Z,27.57
2019-01-25T23:39:47.024Z,29.67
2019-01-25T23:43:57.582Z,28.20
2019-01-25T23:48:04.791Z,31.03
2019-01-25T23:52:11.947Z,30.40
2019-01-25T23:56:19.055Z,30.40
